Terminal Aerodrome Forecast
Issued by NWS

Current Version | Previous Version | Graphics & Text | Print | Product List | Glossary On
Versions: 1 2 3 4 5 6 7 8 9 10 11 12 13 14 15 16 17 18 19 20 21 22 23 24 25 26 27 28 29 30
890
FTUS41 KRNK 240534
TAFLWB
TAF
KLWB 240534Z 2406/2506 00000KT P6SM SKC
     FM240900 00000KT 3SM BR SKC
      TEMPO 2410/2412 1/4SM FG VV001
     FM241300 29003KT P6SM SCT110
     FM241800 31006KT P6SM BKN060=

USA.gov is the U.S. government's official web portal to all federal, state and local government web resources and services.